sensor_id;sensor_type;location;lat;lon;timestamp;pressure;altitude;pressure_sealevel;temperature;humidity
82160;BME280;71734;50.876;7.372;2023-07-28T00:00:10;98166.66;;;15.70;90.42
82160;BME280;71734;50.876;7.372;2023-07-28T00:02:37;98164.00;;;15.70;90.52
82160;BME280;71734;50.876;7.372;2023-07-28T00:05:04;98168.78;;;15.78;89.74
82160;BME280;71734;50.876;7.372;2023-07-28T00:07:30;98159.72;;;15.80;89.36
82160;BME280;71734;50.876;7.372;2023-07-28T00:09:59;98168.91;;;15.76;89.52
82160;BME280;71734;50.876;7.372;2023-07-28T00:12:25;98167.44;;;15.72;89.72
82160;BME280;71734;50.876;7.372;2023-07-28T00:14:53;98174.25;;;15.76;89.53
82160;BME280;71734;50.876;7.372;2023-07-28T00:17:19;98171.78;;;15.73;90.39
82160;BME280;71734;50.876;7.372;2023-07-28T00:19:46;98175.00;;;15.78;89.23
82160;BME280;71734;50.876;7.372;2023-07-28T00:22:12;98159.97;;;15.65;90.29
82160;BME280;71734;50.876;7.372;2023-07-28T00:24:39;98174.69;;;15.70;90.15
82160;BME280;71734;50.876;7.372;2023-07-28T00:27:06;98157.63;;;15.60;89.75
82160;BME280;71734;50.876;7.372;2023-07-28T00:29:32;98163.28;;;15.68;90.18
82160;BME280;71734;50.876;7.372;2023-07-28T00:32:00;98171.59;;;15.64;90.04
82160;BME280;71734;50.876;7.372;2023-07-28T00:34:26;98168.31;;;15.60;90.78
82160;BME280;71734;50.876;7.372;2023-07-28T00:36:53;98158.47;;;15.48;91.04
82160;BME280;71734;50.876;7.372;2023-07-28T00:39:19;98171.72;;;15.50;91.67
82160;BME280;71734;50.876;7.372;2023-07-28T00:41:46;98169.66;;;15.53;91.00
82160;BME280;71734;50.876;7.372;2023-07-28T00:44:12;98164.88;;;15.58;90.99
82160;BME280;71734;50.876;7.372;2023-07-28T00:46:40;98171.38;;;15.54;91.37
82160;BME280;71734;50.876;7.372;2023-07-28T00:49:08;98162.06;;;15.47;91.35
82160;BME280;71734;50.876;7.372;2023-07-28T00:51:35;98162.75;;;15.51;91.29
82160;BME280;71734;50.876;7.372;2023-07-28T00:54:03;98160.38;;;15.46;91.31
82160;BME280;71734;50.876;7.372;2023-07-28T00:56:30;98157.59;;;15.48;91.47
82160;BME280;71734;50.876;7.372;2023-07-28T00:58:57;98159.22;;;15.50;91.75
82160;BME280;71734;50.876;7.372;2023-07-28T01:01:24;98156.53;;;15.50;91.50
82160;BME280;71734;50.876;7.372;2023-07-28T01:03:51;98153.13;;;15.48;91.52
82160;BME280;71734;50.876;7.372;2023-07-28T01:06:26;98150.97;;;15.53;91.17
82160;BME280;71734;50.876;7.372;2023-07-28T01:08:58;98151.75;;;15.55;91.22
82160;BME280;71734;50.876;7.372;2023-07-28T01:11:28;98151.84;;;15.54;91.52
82160;BME280;71734;50.876;7.372;2023-07-28T01:13:55;98154.63;;;15.52;91.73
82160;BME280;71734;50.876;7.372;2023-07-28T01:16:22;98150.47;;;15.61;90.71
82160;BME280;71734;50.876;7.372;2023-07-28T01:18:49;98149.81;;;15.57;90.67
82160;BME280;71734;50.876;7.372;2023-07-28T01:21:21;98153.94;;;15.49;91.69
82160;BME280;71734;50.876;7.372;2023-07-28T01:23:55;98149.16;;;15.41;92.26
82160;BME280;71734;50.876;7.372;2023-07-28T01:26:30;98148.09;;;15.44;91.73
82160;BME280;71734;50.876;7.372;2023-07-28T01:28:58;98149.78;;;15.45;91.87
82160;BME280;71734;50.876;7.372;2023-07-28T01:31:25;98152.91;;;15.51;91.69
82160;BME280;71734;50.876;7.372;2023-07-28T01:33:52;98144.13;;;15.49;91.77
82160;BME280;71734;50.876;7.372;2023-07-28T01:36:18;98151.28;;;15.49;91.64
82160;BME280;71734;50.876;7.372;2023-07-28T01:38:44;98147.50;;;15.53;91.62
82160;BME280;71734;50.876;7.372;2023-07-28T01:41:11;98147.78;;;15.48;91.92
82160;BME280;71734;50.876;7.372;2023-07-28T01:43:39;98149.41;;;15.51;92.01
82160;BME280;71734;50.876;7.372;2023-07-28T01:46:07;98141.56;;;15.48;91.87
82160;BME280;71734;50.876;7.372;2023-07-28T01:48:33;98142.97;;;15.53;91.82
82160;BME280;71734;50.876;7.372;2023-07-28T01:51:00;98146.06;;;15.47;91.89
82160;BME280;71734;50.876;7.372;2023-07-28T01:53:26;98143.97;;;15.52;91.37
82160;BME280;71734;50.876;7.372;2023-07-28T01:55:52;98147.13;;;15.57;91.58
82160;BME280;71734;50.876;7.372;2023-07-28T01:58:19;98145.63;;;15.53;91.47
82160;BME280;71734;50.876;7.372;2023-07-28T02:00:47;98150.56;;;15.59;90.73
82160;BME280;71734;50.876;7.372;2023-07-28T02:03:13;98146.09;;;15.60;90.59
82160;BME280;71734;50.876;7.372;2023-07-28T02:05:39;98139.22;;;15.68;90.89
82160;BME280;71734;50.876;7.372;2023-07-28T02:08:06;98141.59;;;15.60;91.05
82160;BME280;71734;50.876;7.372;2023-07-28T02:10:32;98141.69;;;15.59;91.14
82160;BME280;71734;50.876;7.372;2023-07-28T02:12:59;98131.78;;;15.61;91.44
82160;BME280;71734;50.876;7.372;2023-07-28T02:15:25;98135.06;;;15.64;90.92
82160;BME280;71734;50.876;7.372;2023-07-28T02:17:53;98128.00;;;15.63;90.90
82160;BME280;71734;50.876;7.372;2023-07-28T02:20:19;98131.84;;;15.72;90.05
82160;BME280;71734;50.876;7.372;2023-07-28T02:22:46;98141.34;;;15.76;90.66
82160;BME280;71734;50.876;7.372;2023-07-28T02:25:12;98136.09;;;15.74;89.75
82160;BME280;71734;50.876;7.372;2023-07-28T02:27:39;98144.25;;;15.73;90.87
82160;BME280;71734;50.876;7.372;2023-07-28T02:30:06;98139.00;;;15.71;90.44
82160;BME280;71734;50.876;7.372;2023-07-28T02:32:33;98138.25;;;15.69;91.26
82160;BME280;71734;50.876;7.372;2023-07-28T02:35:01;98141.34;;;15.76;90.86
82160;BME280;71734;50.876;7.372;2023-07-28T02:37:27;98147.75;;;15.73;90.76
82160;BME280;71734;50.876;7.372;2023-07-28T02:39:53;98133.03;;;15.68;91.13
82160;BME280;71734;50.876;7.372;2023-07-28T02:42:20;98142.41;;;15.73;91.03
82160;BME280;71734;50.876;7.372;2023-07-28T02:44:46;98151.41;;;15.72;91.00
82160;BME280;71734;50.876;7.372;2023-07-28T02:47:13;98146.06;;;15.72;90.99
82160;BME280;71734;50.876;7.372;2023-07-28T02:49:40;98147.84;;;15.85;90.66
82160;BME280;71734;50.876;7.372;2023-07-28T02:52:09;98154.56;;;15.77;91.08
82160;BME280;71734;50.876;7.372;2023-07-28T02:54:35;98153.09;;;15.73;90.77
82160;BME280;71734;50.876;7.372;2023-07-28T02:57:02;98152.25;;;15.73;91.27
82160;BME280;71734;50.876;7.372;2023-07-28T02:59:28;98155.66;;;15.75;91.78
82160;BME280;71734;50.876;7.372;2023-07-28T03:01:54;98139.00;;;15.71;90.86
82160;BME280;71734;50.876;7.372;2023-07-28T03:04:22;98157.25;;;15.77;91.34
82160;BME280;71734;50.876;7.372;2023-07-28T03:06:49;98153.09;;;15.73;91.73
82160;BME280;71734;50.876;7.372;2023-07-28T03:09:16;98158.09;;;15.78;91.23
82160;BME280;71734;50.876;7.372;2023-07-28T03:11:43;98160.78;;;15.78;91.69
82160;BME280;71734;50.876;7.372;2023-07-28T03:14:09;98160.69;;;15.67;91.76
82160;BME280;71734;50.876;7.372;2023-07-28T03:16:38;98158.66;;;15.70;91.90
82160;BME280;71734;50.876;7.372;2023-07-28T03:19:04;98157.38;;;15.76;90.95
82160;BME280;71734;50.876;7.372;2023-07-28T03:21:31;98157.16;;;15.79;91.71
82160;BME280;71734;50.876;7.372;2023-07-28T03:23:57;98159.28;;;15.74;92.03
82160;BME280;71734;50.876;7.372;2023-07-28T03:26:25;98159.28;;;15.74;91.95
82160;BME280;71734;50.876;7.372;2023-07-28T03:28:51;98157.59;;;15.73;91.24
82160;BME280;71734;50.876;7.372;2023-07-28T03:31:18;98153.63;;;15.78;91.29
82160;BME280;71734;50.876;7.372;2023-07-28T03:33:44;98159.81;;;15.79;91.49
82160;BME280;71734;50.876;7.372;2023-07-28T03:36:11;98153.84;;;15.75;91.46
82160;BME280;71734;50.876;7.372;2023-07-28T03:38:37;98161.00;;;15.75;92.05
82160;BME280;71734;50.876;7.372;2023-07-28T03:41:03;98162.09;;;15.72;92.25
82160;BME280;71734;50.876;7.372;2023-07-28T03:43:33;98161.41;;;15.81;90.52
82160;BME280;71734;50.876;7.372;2023-07-28T03:46:00;98157.78;;;15.82;91.26
82160;BME280;71734;50.876;7.372;2023-07-28T03:48:26;98159.50;;;15.84;90.95
82160;BME280;71734;50.876;7.372;2023-07-28T03:50:52;98160.44;;;15.82;91.26
82160;BME280;71734;50.876;7.372;2023-07-28T03:53:19;98172.09;;;15.81;91.36
82160;BME280;71734;50.876;7.372;2023-07-28T03:55:45;98164.00;;;15.70;92.35
82160;BME280;71734;50.876;7.372;2023-07-28T03:58:12;98158.09;;;15.78;91.91
82160;BME280;71734;50.876;7.372;2023-07-28T04:00:39;98157.78;;;15.82;91.34
82160;BME280;71734;50.876;7.372;2023-07-28T04:03:06;98156.91;;;15.82;90.92
82160;BME280;71734;50.876;7.372;2023-07-28T04:05:32;98157.38;;;15.76;92.09
82160;BME280;71734;50.876;7.372;2023-07-28T04:07:59;98159.59;;;15.82;91.37
82160;BME280;71734;50.876;7.372;2023-07-28T04:10:25;98152.25;;;15.73;92.04
82160;BME280;71734;50.876;7.372;2023-07-28T04:12:52;98159.50;;;15.84;91.40
82160;BME280;71734;50.876;7.372;2023-07-28T04:15:18;98156.91;;;15.82;91.41
82160;BME280;71734;50.876;7.372;2023-07-28T04:17:46;98159.50;;;15.84;91.96
82160;BME280;71734;50.876;7.372;2023-07-28T04:20:12;98155.88;;;15.85;92.17
82160;BME280;71734;50.876;7.372;2023-07-28T04:22:39;98159.16;;;15.88;91.27
82160;BME280;71734;50.876;7.372;2023-07-28T04:25:06;98166.84;;;15.93;91.56
82160;BME280;71734;50.876;7.372;2023-07-28T04:27:33;98166.31;;;15.88;92.30
82160;BME280;71734;50.876;7.372;2023-07-28T04:29:59;98167.19;;;15.88;91.83
82160;BME280;71734;50.876;7.372;2023-07-28T04:32:26;98169.72;;;15.90;91.20
82160;BME280;71734;50.876;7.372;2023-07-28T04:34:54;98172.19;;;15.93;91.36
82160;BME280;71734;50.876;7.372;2023-07-28T04:37:20;98172.91;;;15.95;91.62
82160;BME280;71734;50.876;7.372;2023-07-28T04:39:46;98171.75;;;15.99;91.99
82160;BME280;71734;50.876;7.372;2023-07-28T04:42:13;98179.75;;;15.99;91.94
82160;BME280;71734;50.876;7.372;2023-07-28T04:44:39;98180.09;;;15.94;91.35
82160;BME280;71734;50.876;7.372;2023-07-28T04:47:06;98182.31;;;16.00;91.66
82160;BME280;71734;50.876;7.372;2023-07-28T04:49:32;98172.69;;;15.98;91.51
82160;BME280;71734;50.876;7.372;2023-07-28T04:52:00;98179.09;;;16.08;90.90
82160;BME280;71734;50.876;7.372;2023-07-28T04:54:27;98185.31;;;16.08;91.48
82160;BME280;71734;50.876;7.372;2023-07-28T04:56:53;98181.91;;;15.94;91.61
82160;BME280;71734;50.876;7.372;2023-07-28T04:59:19;98199.41;;;15.98;91.95
82160;BME280;71734;50.876;7.372;2023-07-28T05:01:46;98193.97;;;15.99;92.35
82160;BME280;71734;50.876;7.372;2023-07-28T05:04:12;98192.78;;;16.03;91.82
82160;BME280;71734;50.876;7.372;2023-07-28T05:06:39;98186.81;;;16.00;92.04
82160;BME280;71734;50.876;7.372;2023-07-28T05:09:07;98198.53;;;16.10;91.83
82160;BME280;71734;50.876;7.372;2023-07-28T05:11:34;98191.50;;;16.09;91.23
82160;BME280;71734;50.876;7.372;2023-07-28T05:14:00;98195.22;;;16.06;91.76
82160;BME280;71734;50.876;7.372;2023-07-28T05:16:27;98199.72;;;16.06;91.41
82160;BME280;71734;50.876;7.372;2023-07-28T05:18:53;98197.28;;;16.03;92.08
82160;BME280;71734;50.876;7.372;2023-07-28T05:21:20;98207.53;;;16.09;92.03
82160;BME280;71734;50.876;7.372;2023-07-28T05:23:47;98204.06;;;16.19;92.15
82160;BME280;71734;50.876;7.372;2023-07-28T05:26:15;98203.34;;;16.17;91.78
82160;BME280;71734;50.876;7.372;2023-07-28T05:28:41;98198.34;;;16.13;92.01
82160;BME280;71734;50.876;7.372;2023-07-28T05:31:08;98207.84;;;16.17;92.00
82160;BME280;71734;50.876;7.372;2023-07-28T05:56:59;98219.06;;;16.22;91.36
82160;BME280;71734;50.876;7.372;2023-07-28T05:59:49;98221.59;;;16.23;91.95
82160;BME280;71734;50.876;7.372;2023-07-28T06:03:43;98220.94;;;16.33;91.69
82160;BME280;71734;50.876;7.372;2023-07-28T06:06:12;98220.47;;;16.39;91.43
82160;BME280;71734;50.876;7.372;2023-07-28T06:23:33;98243.25;;;16.44;91.23
82160;BME280;71734;50.876;7.372;2023-07-28T06:26:09;98226.25;;;16.45;92.05
82160;BME280;71734;50.876;7.372;2023-07-28T06:29:10;98236.94;;;16.45;91.72
82160;BME280;71734;50.876;7.372;2023-07-28T06:35:23;98242.06;;;16.48;91.59
82160;BME280;71734;50.876;7.372;2023-07-28T06:38:18;98242.53;;;16.42;91.47
82160;BME280;71734;50.876;7.372;2023-07-28T06:41:40;98240.34;;;16.47;91.40
82160;BME280;71734;50.876;7.372;2023-07-28T06:44:28;98255.34;;;16.50;91.75
82160;BME280;71734;50.876;7.372;2023-07-28T06:47:35;98256.06;;;16.52;91.66
82160;BME280;71734;50.876;7.372;2023-07-28T06:50:14;98252.88;;;16.47;91.94
82160;BME280;71734;50.876;7.372;2023-07-28T06:52:40;98259.50;;;16.54;91.90
82160;BME280;71734;50.876;7.372;2023-07-28T06:55:07;98263.84;;;16.67;91.12
82160;BME280;71734;50.876;7.372;2023-07-28T06:57:35;98277.84;;;16.71;90.73
82160;BME280;71734;50.876;7.372;2023-07-28T07:00:02;98279.47;;;16.73;90.84
82160;BME280;71734;50.876;7.372;2023-07-28T07:02:29;98273.34;;;16.71;91.34
82160;BME280;71734;50.876;7.372;2023-07-28T07:04:56;98275.25;;;16.58;91.27
82160;BME280;71734;50.876;7.372;2023-07-28T07:07:22;98281.00;;;16.65;92.33
82160;BME280;71734;50.876;7.372;2023-07-28T07:09:51;98284.06;;;16.71;91.93
82160;BME280;71734;50.876;7.372;2023-07-28T07:12:17;98290.09;;;16.62;91.99
82160;BME280;71734;50.876;7.372;2023-07-28T07:14:46;98286.44;;;16.63;91.51
82160;BME280;71734;50.876;7.372;2023-07-28T07:17:12;98278.41;;;16.63;91.56
82160;BME280;71734;50.876;7.372;2023-07-28T07:19:39;98281.38;;;16.71;91.21
82160;BME280;71734;50.876;7.372;2023-07-28T07:22:05;98282.44;;;16.82;91.88
82160;BME280;71734;50.876;7.372;2023-07-28T07:24:32;98291.84;;;16.87;91.70
82160;BME280;71734;50.876;7.372;2023-07-28T07:26:58;98288.84;;;16.79;91.74
82160;BME280;71734;50.876;7.372;2023-07-28T07:29:25;98290.13;;;16.86;91.73
82160;BME280;71734;50.876;7.372;2023-07-28T07:31:53;98295.63;;;16.96;91.32
82160;BME280;71734;50.876;7.372;2023-07-28T07:34:21;98300.78;;;16.99;91.49
82160;BME280;71734;50.876;7.372;2023-07-28T07:36:48;98299.09;;;17.09;91.16
82160;BME280;71734;50.876;7.372;2023-07-28T07:39:15;98296.41;;;17.09;91.56
82160;BME280;71734;50.876;7.372;2023-07-28T07:41:41;98308.59;;;17.13;91.51
82160;BME280;71734;50.876;7.372;2023-07-28T07:44:08;98307.66;;;17.14;91.05
82160;BME280;71734;50.876;7.372;2023-07-28T07:46:34;98312.03;;;17.15;91.07
82160;BME280;71734;50.876;7.372;2023-07-28T07:49:02;98310.31;;;17.14;91.54
82160;BME280;71734;50.876;7.372;2023-07-28T07:51:31;98319.56;;;17.10;92.05
82160;BME280;71734;50.876;7.372;2023-07-28T07:53:59;98318.69;;;17.09;91.94
82160;BME280;71734;50.876;7.372;2023-07-28T07:56:26;98328.09;;;17.15;91.21
82160;BME280;71734;50.876;7.372;2023-07-28T07:58:53;98320.56;;;17.20;90.70
82160;BME280;71734;50.876;7.372;2023-07-28T08:01:19;98331.69;;;17.27;90.88
82160;BME280;71734;50.876;7.372;2023-07-28T08:03:46;98332.47;;;17.16;90.09
82160;BME280;71734;50.876;7.372;2023-07-28T08:06:14;98336.06;;;17.04;91.21
82160;BME280;71734;50.876;7.372;2023-07-28T08:08:40;98332.13;;;16.97;91.62
82160;BME280;71734;50.876;7.372;2023-07-28T08:11:07;98341.66;;;17.01;91.68
82160;BME280;71734;50.876;7.372;2023-07-28T08:13:33;98338.00;;;17.02;91.59
82160;BME280;71734;50.876;7.372;2023-07-28T08:16:00;98344.31;;;17.01;91.64
82160;BME280;71734;50.876;7.372;2023-07-28T08:18:26;98343.13;;;17.05;91.35
82160;BME280;71734;50.876;7.372;2023-07-28T08:20:53;98347.56;;;17.17;91.55
82160;BME280;71734;50.876;7.372;2023-07-28T08:23:21;98359.72;;;17.34;91.58
82160;BME280;71734;50.876;7.372;2023-07-28T08:25:47;98354.53;;;17.43;91.25
82160;BME280;71734;50.876;7.372;2023-07-28T08:28:14;98347.34;;;17.68;90.96
82160;BME280;71734;50.876;7.372;2023-07-28T08:30:40;98357.66;;;18.07;90.49
82160;BME280;71734;50.876;7.372;2023-07-28T08:33:07;98352.53;;;18.15;89.90
82160;BME280;71734;50.876;7.372;2023-07-28T08:35:33;98358.16;;;18.23;89.13
82160;BME280;71734;50.876;7.372;2023-07-28T08:38:00;98350.75;;;18.38;89.29
82160;BME280;71734;50.876;7.372;2023-07-28T08:40:27;98358.47;;;18.53;89.30
82160;BME280;71734;50.876;7.372;2023-07-28T08:42:54;98358.47;;;18.53;89.50
82160;BME280;71734;50.876;7.372;2023-07-28T08:45:22;98363.06;;;18.51;88.70
82160;BME280;71734;50.876;7.372;2023-07-28T08:47:49;98360.63;;;18.48;88.72
82160;BME280;71734;50.876;7.372;2023-07-28T08:50:16;98365.72;;;18.51;88.37
82160;BME280;71734;50.876;7.372;2023-07-28T08:52:43;98366.00;;;18.60;88.29
82160;BME280;71734;50.876;7.372;2023-07-28T08:55:10;98366.63;;;18.74;88.25
82160;BME280;71734;50.876;7.372;2023-07-28T08:57:37;98367.94;;;18.80;88.52
82160;BME280;71734;50.876;7.372;2023-07-28T09:00:08;98366.59;;;18.85;87.09
82160;BME280;71734;50.876;7.372;2023-07-28T09:02:36;98375.00;;;18.92;87.61
82160;BME280;71734;50.876;7.372;2023-07-28T09:05:03;98367.19;;;19.00;87.58
82160;BME280;71734;50.876;7.372;2023-07-28T09:07:34;98359.94;;;19.12;87.29
82160;BME280;71734;50.876;7.372;2023-07-28T09:10:00;98366.72;;;19.38;86.86
82160;BME280;71734;50.876;7.372;2023-07-28T09:12:27;98361.72;;;19.33;84.46
82160;BME280;71734;50.876;7.372;2023-07-28T09:14:58;98360.88;;;19.65;85.91
82160;BME280;71734;50.876;7.372;2023-07-28T09:17:25;98361.09;;;19.93;85.98
82160;BME280;71734;50.876;7.372;2023-07-28T09:19:52;98361.31;;;20.02;82.72
82160;BME280;71734;50.876;7.372;2023-07-28T09:22:19;98354.94;;;19.82;83.92
82160;BME280;71734;50.876;7.372;2023-07-28T09:24:46;98361.34;;;19.70;84.15
82160;BME280;71734;50.876;7.372;2023-07-28T09:27:19;98365.03;;;19.69;84.90
82160;BME280;71734;50.876;7.372;2023-07-28T09:29:48;98360.06;;;19.64;84.44
82160;BME280;71734;50.876;7.372;2023-07-28T09:32:16;98357.41;;;19.53;85.75
82160;BME280;71734;50.876;7.372;2023-07-28T09:34:43;98360.69;;;19.57;84.05
82160;BME280;71734;50.876;7.372;2023-07-28T09:37:09;98363.16;;;19.48;85.27
82160;BME280;71734;50.876;7.372;2023-07-28T09:39:39;98367.31;;;19.41;86.17
82160;BME280;71734;50.876;7.372;2023-07-28T09:42:07;98367.84;;;19.35;85.10
82160;BME280;71734;50.876;7.372;2023-07-28T09:44:35;98362.09;;;19.29;85.93
82160;BME280;71734;50.876;7.372;2023-07-28T09:47:02;98367.63;;;19.27;85.58
82160;BME280;71734;50.876;7.372;2023-07-28T09:49:35;98371.06;;;19.18;86.44
82160;BME280;71734;50.876;7.372;2023-07-28T09:52:05;98372.31;;;19.03;86.27
82160;BME280;71734;50.876;7.372;2023-07-28T09:54:34;98364.03;;;18.95;86.29
82160;BME280;71734;50.876;7.372;2023-07-28T09:57:07;98374.25;;;19.01;86.04
82160;BME280;71734;50.876;7.372;2023-07-28T09:59:37;98364.88;;;19.07;84.94
82160;BME280;71734;50.876;7.372;2023-07-28T10:02:04;98369.16;;;18.98;85.57
82160;BME280;71734;50.876;7.372;2023-07-28T10:04:33;98367.66;;;19.05;85.55
82160;BME280;71734;50.876;7.372;2023-07-28T10:07:00;98378.28;;;19.07;86.44
82160;BME280;71734;50.876;7.372;2023-07-28T10:09:28;98372.91;;;19.07;85.55
82160;BME280;71734;50.876;7.372;2023-07-28T10:11:56;98371.31;;;19.15;84.48
82160;BME280;71734;50.876;7.372;2023-07-28T10:14:26;98369.13;;;19.09;83.61
82160;BME280;71734;50.876;7.372;2023-07-28T10:16:54;98375.50;;;18.97;82.72
82160;BME280;71734;50.876;7.372;2023-07-28T10:19:20;98382.56;;;19.09;84.27
82160;BME280;71734;50.876;7.372;2023-07-28T10:21:48;98377.56;;;19.04;82.89
82160;BME280;71734;50.876;7.372;2023-07-28T10:24:15;98379.13;;;19.18;83.79
82160;BME280;71734;50.876;7.372;2023-07-28T10:26:41;98375.91;;;19.24;83.93
82160;BME280;71734;50.876;7.372;2023-07-28T10:29:11;98385.72;;;19.14;84.15
82160;BME280;71734;50.876;7.372;2023-07-28T10:31:49;98389.22;;;19.26;84.60
82160;BME280;71734;50.876;7.372;2023-07-28T10:34:16;98395.41;;;19.37;85.28
82160;BME280;71734;50.876;7.372;2023-07-28T10:36:43;98383.44;;;19.41;83.40
82160;BME280;71734;50.876;7.372;2023-07-28T10:39:15;98390.28;;;19.45;84.37
82160;BME280;71734;50.876;7.372;2023-07-28T10:42:01;98388.34;;;19.47;84.00
82160;BME280;71734;50.876;7.372;2023-07-28T10:44:29;98396.84;;;19.53;84.51
82160;BME280;71734;50.876;7.372;2023-07-28T10:46:56;98399.53;;;19.53;84.28
82160;BME280;71734;50.876;7.372;2023-07-28T10:49:23;98394.06;;;19.54;83.63
82160;BME280;71734;50.876;7.372;2023-07-28T10:51:50;98392.44;;;19.63;84.77
82160;BME280;71734;50.876;7.372;2023-07-28T10:54:18;98390.38;;;19.87;84.23
82160;BME280;71734;50.876;7.372;2023-07-28T10:56:46;98396.94;;;19.94;82.50
82160;BME280;71734;50.876;7.372;2023-07-28T10:59:12;98396.81;;;20.58;80.76
82160;BME280;71734;50.876;7.372;2023-07-28T11:01:41;98396.16;;;20.45;79.44
82160;BME280;71734;50.876;7.372;2023-07-28T11:04:09;98387.09;;;20.46;79.17
82160;BME280;71734;50.876;7.372;2023-07-28T11:06:37;98389.31;;;20.61;80.13
82160;BME280;71734;50.876;7.372;2023-07-28T11:09:05;98378.50;;;20.92;78.91
82160;BME280;71734;50.876;7.372;2023-07-28T11:11:34;98379.69;;;21.08;80.72
82160;BME280;71734;50.876;7.372;2023-07-28T11:14:01;98383.47;;;20.96;77.04
82160;BME280;71734;50.876;7.372;2023-07-28T11:16:28;98388.69;;;20.78;77.94
82160;BME280;71734;50.876;7.372;2023-07-28T11:18:55;98387.78;;;20.68;77.96
82160;BME280;71734;50.876;7.372;2023-07-28T11:21:23;98379.81;;;20.67;79.06
82160;BME280;71734;50.876;7.372;2023-07-28T11:23:50;98398.41;;;20.39;76.94
82160;BME280;71734;50.876;7.372;2023-07-28T11:26:17;98396.66;;;20.29;78.70
82160;BME280;71734;50.876;7.372;2023-07-28T11:28:46;98390.38;;;20.28;80.40
82160;BME280;71734;50.876;7.372;2023-07-28T11:31:12;98385.50;;;20.02;80.81
82160;BME280;71734;50.876;7.372;2023-07-28T11:33:39;98395.69;;;20.19;82.13
82160;BME280;71734;50.876;7.372;2023-07-28T11:36:05;98382.38;;;20.17;79.68
82160;BME280;71734;50.876;7.372;2023-07-28T11:38:32;98396.53;;;20.19;80.20
82160;BME280;71734;50.876;7.372;2023-07-28T11:41:00;98385.25;;;20.25;80.16
82160;BME280;71734;50.876;7.372;2023-07-28T11:43:28;98390.13;;;20.31;78.61
82160;BME280;71734;50.876;7.372;2023-07-28T11:45:56;98397.59;;;20.49;80.65
82160;BME280;71734;50.876;7.372;2023-07-28T11:48:29;98381.06;;;20.63;80.77
82160;BME280;71734;50.876;7.372;2023-07-28T11:50:57;98387.13;;;20.55;79.45
82160;BME280;71734;50.876;7.372;2023-07-28T11:53:25;98386.72;;;20.90;81.17
82160;BME280;71734;50.876;7.372;2023-07-28T11:55:51;98384.16;;;20.88;79.14
82160;BME280;71734;50.876;7.372;2023-07-28T11:58:19;98381.59;;;20.87;78.57
82160;BME280;71734;50.876;7.372;2023-07-28T12:00:48;98380.78;;;20.86;80.73
82160;BME280;71734;50.876;7.372;2023-07-28T12:03:16;98380.91;;;20.85;80.57
82160;BME280;71734;50.876;7.372;2023-07-28T12:06:05;98388.56;;;20.59;79.99
82160;BME280;71734;50.876;7.372;2023-07-28T12:08:35;98371.03;;;20.65;80.06
82160;BME280;71734;50.876;7.372;2023-07-28T12:11:01;98385.84;;;20.50;78.37
82160;BME280;71734;50.876;7.372;2023-07-28T12:13:28;98384.47;;;20.34;78.25
82160;BME280;71734;50.876;7.372;2023-07-28T12:15:55;98371.31;;;20.62;78.69
82160;BME280;71734;50.876;7.372;2023-07-28T12:18:29;98380.72;;;20.77;75.08
82160;BME280;71734;50.876;7.372;2023-07-28T12:20:56;98383.19;;;20.99;78.64
82160;BME280;71734;50.876;7.372;2023-07-28T12:23:23;98374.94;;;21.21;79.02
82160;BME280;71734;50.876;7.372;2023-07-28T12:25:49;98382.88;;;21.32;73.90
82160;BME280;71734;50.876;7.372;2023-07-28T12:28:17;98365.31;;;21.57;76.25
82160;BME280;71734;50.876;7.372;2023-07-28T12:30:44;98376.69;;;21.70;73.98
82160;BME280;71734;50.876;7.372;2023-07-28T12:33:10;98372.56;;;21.76;72.42
82160;BME280;71734;50.876;7.372;2023-07-28T12:35:38;98374.69;;;21.63;72.35
82160;BME280;71734;50.876;7.372;2023-07-28T12:38:05;98377.81;;;21.68;73.65
82160;BME280;71734;50.876;7.372;2023-07-28T12:40:34;98370.94;;;21.16;73.93
82160;BME280;71734;50.876;7.372;2023-07-28T12:43:01;98375.50;;;21.25;75.01
82160;BME280;71734;50.876;7.372;2023-07-28T12:45:28;98376.63;;;21.22;74.62
82160;BME280;71734;50.876;7.372;2023-07-28T12:47:55;98383.59;;;21.25;76.64
82160;BME280;71734;50.876;7.372;2023-07-28T12:58:07;98384.06;;;21.97;75.40
82160;BME280;71734;50.876;7.372;2023-07-28T13:00:34;98384.16;;;22.34;73.23
82160;BME280;71734;50.876;7.372;2023-07-28T13:03:00;98380.16;;;22.48;74.08
82160;BME280;71734;50.876;7.372;2023-07-28T13:05:27;98391.75;;;22.77;73.44
82160;BME280;71734;50.876;7.372;2023-07-28T13:07:53;98383.16;;;22.25;71.70
82160;BME280;71734;50.876;7.372;2023-07-28T13:10:19;98385.41;;;22.49;74.71
82160;BME280;71734;50.876;7.372;2023-07-28T13:12:46;98384.44;;;22.41;74.94
82160;BME280;71734;50.876;7.372;2023-07-28T13:15:14;98378.25;;;22.58;75.34
82160;BME280;71734;50.876;7.372;2023-07-28T13:17:40;98384.78;;;22.65;73.94
82160;BME280;71734;50.876;7.372;2023-07-28T13:20:07;98377.25;;;22.59;73.39
82160;BME280;71734;50.876;7.372;2023-07-28T13:22:34;98391.91;;;22.66;74.30
82160;BME280;71734;50.876;7.372;2023-07-28T13:25:01;98381.44;;;22.90;72.01
82160;BME280;71734;50.876;7.372;2023-07-28T13:27:28;98387.84;;;22.89;73.12
82160;BME280;71734;50.876;7.372;2023-07-28T13:29:55;98378.91;;;22.79;72.53
82160;BME280;71734;50.876;7.372;2023-07-28T13:32:25;98373.41;;;22.71;73.31
82160;BME280;71734;50.876;7.372;2023-07-28T13:34:52;98380.81;;;22.59;71.13
82160;BME280;71734;50.876;7.372;2023-07-28T13:37:18;98382.66;;;22.12;74.50
82160;BME280;71734;50.876;7.372;2023-07-28T13:39:46;98378.94;;;22.23;75.19
82160;BME280;71734;50.876;7.372;2023-07-28T13:42:12;98377.50;;;22.19;76.08
82160;BME280;71734;50.876;7.372;2023-07-28T13:44:41;98368.88;;;22.15;76.10
82160;BME280;71734;50.876;7.372;2023-07-28T13:47:07;98370.16;;;22.11;77.14
82160;BME280;71734;50.876;7.372;2023-07-28T13:49:35;98372.00;;;22.01;77.30
82160;BME280;71734;50.876;7.372;2023-07-28T13:52:03;98370.28;;;21.91;77.82
82160;BME280;71734;50.876;7.372;2023-07-28T13:54:29;98367.59;;;21.81;77.40